Time;durP1;ratioP1;P1;durP2;ratioP2;P2;SDS_P1;SDS_P2;PMS_P1;PMS_P2;Temp;Humidity;BMP_temperature;BMP_pressure;BME280_temperature;BME280_humidity;BME280_pressure;Samples;Min_cycle;Max_cycle;Signal;HPM_P1;HPM_P2
2021/05/20 00:00:10;;;;;;;12.58;8.15;;;;;;;8.66;70.50;100201.86;2160283;81;27639;-58
2021/05/20 00:03:15;;;;;;;10.82;7.87;;;;;;;8.71;70.63;100206.52;2154757;82;27569;-59
2021/05/20 00:06:17;;;;;;;11.20;8.18;;;;;;;8.79;70.67;100208.84;2154934;81;32114;-59
2021/05/20 00:09:18;;;;;;;15.85;8.90;;;;;;;8.86;70.94;100206.77;2132779;82;33698;-59
2021/05/20 00:12:20;;;;;;;11.55;8.23;;;;;;;8.93;70.76;100210.47;2181969;81;29719;-59
2021/05/20 00:15:22;;;;;;;12.37;8.78;;;;;;;9.00;70.84;100213.73;2148561;82;27677;-59
2021/05/20 00:18:24;;;;;;;15.40;9.08;;;;;;;9.08;70.79;100217.41;2181126;81;29052;-59
2021/05/20 00:21:26;;;;;;;14.60;8.75;;;;;;;9.16;70.71;100225.92;2148592;82;31376;-62
2021/05/20 00:24:28;;;;;;;16.45;9.65;;;;;;;9.23;70.86;100229.19;2148700;82;33087;-59
2021/05/20 00:27:30;;;;;;;23.50;10.20;;;;;;;9.30;70.76;100233.33;2148760;82;29504;-58
2021/05/20 00:30:32;;;;;;;15.28;9.78;;;;;;;9.37;70.74;100235.26;2154905;82;27584;-60
2021/05/20 00:33:35;;;;;;;17.65;9.78;;;;;;;9.42;70.78;100242.61;2154698;82;29895;-59
2021/05/20 00:36:37;;;;;;;17.30;9.38;;;;;;;9.45;70.71;100238.43;2154988;82;31606;-58
2021/05/20 00:39:39;;;;;;;14.00;10.08;;;;;;;9.49;70.64;100238.70;2154898;82;35146;-58
2021/05/20 00:42:46;;;;;;;26.33;10.78;;;;;;;9.52;70.71;100236.34;2155133;82;29381;-58
2021/05/20 00:45:48;;;;;;;14.68;9.10;;;;;;;9.57;70.68;100235.66;2139009;82;27638;-60
2021/05/20 00:48:50;;;;;;;16.30;9.25;;;;;;;9.58;70.55;100240.08;2143970;82;29809;-59
2021/05/20 00:51:51;;;;;;;16.65;9.53;;;;;;;9.61;70.57;100243.95;2144505;82;31687;-59
2021/05/20 00:54:56;;;;;;;14.50;9.70;;;;;;;9.63;70.49;100245.20;2144854;82;33272;-59
2021/05/20 00:58:00;;;;;;;13.70;9.15;;;;;;;9.65;70.56;100239.31;2140596;82;30448;-59
2021/05/20 01:01:03;;;;;;;13.83;8.88;;;;;;;9.69;70.51;100244.93;2138041;83;27619;-59
2021/05/20 01:04:06;;;;;;;15.72;8.95;;;;;;;9.72;70.50;100251.48;2137914;83;28622;-63
2021/05/20 01:07:08;;;;;;;15.35;9.43;;;;;;;9.72;70.47;100249.66;2139284;83;30855;-59
2021/05/20 01:10:11;;;;;;;12.90;9.05;;;;;;;9.77;70.41;100251.25;2140643;83;34159;-59
2021/05/20 01:13:13;;;;;;;13.98;8.88;;;;;;;9.78;70.44;100244.97;2138092;83;29344;-59
2021/05/20 01:16:15;;;;;;;15.35;9.15;;;;;;;9.78;70.39;100256.52;2138085;83;27547;-59
2021/05/20 01:19:17;;;;;;;15.53;9.25;;;;;;;9.78;70.39;100260.53;2137933;83;29785;-59
2021/05/20 01:22:19;;;;;;;13.75;8.10;;;;;;;9.78;70.39;100261.02;2137779;82;32129;-59
2021/05/20 01:25:21;;;;;;;15.10;7.80;;;;;;;9.78;70.36;100261.87;2137893;83;34172;-59
2021/05/20 01:28:28;;;;;;;11.97;8.53;;;;;;;9.79;70.38;100262.75;2141223;83;30426;-59
2021/05/20 01:31:30;;;;;;;11.05;8.15;;;;;;;9.77;70.25;100267.31;2144274;82;28139;-59
2021/05/20 01:34:33;;;;;;;10.63;7.33;;;;;;;9.76;70.24;100263.78;2144991;82;29860;-59
2021/05/20 01:37:35;;;;;;;11.28;7.47;;;;;;;9.73;70.20;100263.43;2144663;82;30995;-59
2021/05/20 01:40:37;;;;;;;12.53;8.20;;;;;;;9.70;70.12;100263.56;2144450;82;34122;-59
2021/05/20 01:43:41;;;;;;;11.43;8.03;;;;;;;9.66;70.05;100269.14;2145586;82;30104;-59
2021/05/20 01:46:43;;;;;;;13.03;8.70;;;;;;;9.61;70.00;100263.13;2156324;82;27585;-59
2021/05/20 01:49:51;;;;;;;18.20;9.38;;;;;;;9.54;69.94;100266.55;2156212;82;29417;-59
2021/05/20 01:52:53;;;;;;;11.88;8.25;;;;;;;9.47;69.85;100265.12;2154445;82;31226;-59
2021/05/20 01:55:55;;;;;;;12.93;7.92;;;;;;;9.38;69.85;100270.41;2166121;81;34111;-59
2021/05/20 01:58:57;;;;;;;13.08;8.83;;;;;;;9.28;69.86;100267.28;2166167;81;30081;-59
2021/05/20 02:01:59;;;;;;;13.28;8.35;;;;;;;9.20;69.79;100268.08;2166207;81;28143;-59
2021/05/20 02:05:00;;;;;;;10.65;7.37;;;;;;;9.10;69.87;100271.17;2166030;82;29743;-61
2021/05/20 02:08:03;;;;;;;12.47;8.10;;;;;;;9.03;69.99;100274.18;2167981;81;31195;-59
2021/05/20 02:11:07;;;;;;;9.85;7.85;;;;;;;8.92;70.02;100270.19;2142998;82;32937;-62
2021/05/20 02:14:08;;;;;;;12.90;7.65;;;;;;;8.84;69.97;100274.13;2179020;81;30481;-59
2021/05/20 02:17:10;;;;;;;10.72;8.43;;;;;;;8.75;70.11;100272.71;2142205;83;28178;-59
2021/05/20 02:20:13;;;;;;;12.75;8.05;;;;;;;8.68;70.18;100272.55;2172763;81;28527;-65
2021/05/20 02:23:17;;;;;;;11.85;8.35;;;;;;;8.60;70.21;100279.11;2172097;81;31615;-59
2021/05/20 02:26:19;;;;;;;12.03;7.60;;;;;;;8.54;70.30;100284.69;2171683;81;32947;-59
2021/05/20 02:29:21;;;;;;;11.10;8.00;;;;;;;8.47;70.43;100285.38;2171747;81;29123;-59
2021/05/20 02:32:23;;;;;;;11.22;7.92;;;;;;;8.41;70.51;100281.61;2171882;81;27679;-59
2021/05/20 02:35:25;;;;;;;13.50;8.53;;;;;;;8.37;70.58;100282.66;2171893;81;28981;-59
2021/05/20 02:38:27;;;;;;;14.58;9.13;;;;;;;8.33;70.62;100285.94;2171873;81;31326;-63
2021/05/20 02:41:28;;;;;;;11.22;7.65;;;;;;;8.30;70.75;100288.72;2142919;83;34262;-63
2021/05/20 02:44:30;;;;;;;12.37;7.65;;;;;;;8.29;70.82;100288.80;2179477;80;29187;-59
2021/05/20 02:47:32;;;;;;;13.53;8.63;;;;;;;8.28;70.94;100287.91;2175154;81;27646;-59
2021/05/20 02:50:34;;;;;;;15.35;8.10;;;;;;;8.27;70.93;100290.20;2173756;81;29003;-60
2021/05/20 02:53:36;;;;;;;12.25;7.90;;;;;;;8.25;70.99;100295.18;2149971;82;30070;-59
2021/05/20 02:56:38;;;;;;;12.45;8.35;;;;;;;8.22;71.04;100292.18;2152653;82;34224;-59
2021/05/20 02:59:40;;;;;;;13.13;8.05;;;;;;;8.21;71.09;100294.44;2181903;81;30512;-59
2021/05/20 03:02:41;;;;;;;17.40;7.83;;;;;;;8.20;71.14;100299.38;2148793;82;27497;-59
2021/05/20 03:05:43;;;;;;;10.40;7.50;;;;;;;8.20;71.12;100300.23;2176203;81;28693;-62
2021/05/20 03:08:45;;;;;;;14.83;7.80;;;;;;;8.19;71.14;100298.48;2149652;81;32136;-59
2021/05/20 03:11:47;;;;;;;11.78;7.85;;;;;;;8.18;71.17;100302.12;2181869;81;33071;-60
2021/05/20 03:14:50;;;;;;;14.85;8.50;;;;;;;8.18;71.18;100303.90;2147848;82;30427;-59
2021/05/20 03:17:52;;;;;;;10.60;7.58;;;;;;;8.15;71.17;100304.02;2182177;81;27576;-59
2021/05/20 03:20:53;;;;;;;14.98;8.10;;;;;;;8.15;71.19;100308.91;2148754;82;29320;-64
2021/05/20 03:23:56;;;;;;;10.85;7.47;;;;;;;8.14;71.25;100311.61;2177981;81;31813;-61
2021/05/20 03:26:58;;;;;;;11.60;8.45;;;;;;;8.13;71.25;100312.54;2148534;82;33683;-64
2021/05/20 03:30:00;;;;;;;14.63;9.78;;;;;;;8.13;71.27;100313.88;2150103;81;29728;-60
2021/05/20 03:33:01;;;;;;;15.45;9.33;;;;;;;8.13;71.32;100314.77;2148196;82;27523;-59
2021/05/20 03:36:04;;;;;;;12.28;9.05;;;;;;;8.14;71.43;100322.28;2148561;82;29849;-59
2021/05/20 03:39:06;;;;;;;11.45;8.28;;;;;;;8.15;71.41;100324.91;2154807;82;31703;-59
2021/05/20 03:42:10;;;;;;;11.90;8.10;;;;;;;8.18;71.53;100318.58;2178397;81;30757;-59
2021/05/20 03:45:14;;;;;;;10.93;8.08;;;;;;;8.23;71.52;100321.94;2161174;82;30553;-60
2021/05/20 03:48:15;;;;;;;11.88;8.55;;;;;;;8.27;71.51;100322.68;2153990;82;27630;-59
2021/05/20 03:51:18;;;;;;;14.13;8.48;;;;;;;8.31;71.54;100316.30;2155542;82;29772;-59
2021/05/20 03:54:20;;;;;;;14.68;8.50;;;;;;;8.35;71.57;100323.27;2147941;82;31414;-63
2021/05/20 03:57:22;;;;;;;11.15;8.88;;;;;;;8.39;71.56;100322.66;2148555;82;33337;-59
2021/05/20 04:00:25;;;;;;;9.73;8.15;;;;;;;8.46;71.61;100321.47;2148929;82;30444;-60
2021/05/20 04:03:29;;;;;;;14.63;8.28;;;;;;;8.52;71.57;100322.59;2179281;81;27563;-59
2021/05/20 04:06:31;;;;;;;9.03;6.20;;;;;;;8.60;71.58;100324.50;2148824;82;29714;-59
2021/05/20 04:09:33;;;;;;;10.80;8.28;;;;;;;8.71;71.57;100329.85;2147675;82;30377;-61
2021/05/20 04:12:35;;;;;;;13.13;8.33;;;;;;;8.81;71.46;100328.08;2179108;81;34066;-64
2021/05/20 04:15:37;;;;;;;12.68;8.43;;;;;;;8.92;71.44;100330.30;2149202;82;29674;-60
2021/05/20 04:18:41;;;;;;;11.08;8.13;;;;;;;9.03;71.33;100334.31;2173393;81;27581;-59
2021/05/20 04:21:43;;;;;;;11.40;8.18;;;;;;;9.10;71.24;100334.46;2148917;82;29429;-59
2021/05/20 04:24:45;;;;;;;12.33;8.38;;;;;;;9.18;71.16;100333.64;2151335;82;30406;-62
2021/05/20 04:27:46;;;;;;;15.15;7.60;;;;;;;9.28;71.07;100332.30;2179191;81;33328;-68
2021/05/20 04:30:48;;;;;;;11.70;7.97;;;;;;;9.40;70.99;100334.05;2179282;81;29328;-60
2021/05/20 04:33:50;;;;;;;11.65;8.15;;;;;;;9.52;71.00;100340.18;2147983;82;27660;-62
2021/05/20 04:36:52;;;;;;;11.08;7.80;;;;;;;9.71;70.94;100338.02;2145416;82;29717;-60
2021/05/20 04:39:53;;;;;;;11.08;7.25;;;;;;;10.30;71.51;100343.31;2145294;83;30885;-60
2021/05/20 04:42:55;;;;;;;11.30;7.37;;;;;;;11.17;71.29;100336.41;2145351;82;33343;-60
2021/05/20 04:45:57;;;;;;;10.43;7.05;;;;;;;12.07;70.40;100337.06;2163781;81;29721;-59
2021/05/20 04:48:59;;;;;;;12.63;6.67;;;;;;;12.83;69.50;100334.97;2167459;81;28036;-60
2021/05/20 04:52:00;;;;;;;10.48;6.97;;;;;;;13.57;68.78;100331.55;2166802;82;28972;-60
2021/05/20 04:55:02;;;;;;;9.40;6.47;;;;;;;14.30;67.83;100326.97;2164505;82;32062;-60
2021/05/20 04:58:03;;;;;;;7.25;6.30;;;;;;;14.86;66.69;100335.00;2188582;81;33330;-60
2021/05/20 05:01:05;;;;;;;9.78;5.80;;;;;;;15.43;65.85;100333.82;2188458;81;30558;-61
2021/05/20 05:04:07;;;;;;;8.73;6.22;;;;;;;16.19;64.89;100335.73;2188536;81;27509;-60
2021/05/20 05:07:09;;;;;;;7.53;6.03;;;;;;;17.04;64.25;100332.19;2188700;81;29025;-60
2021/05/20 05:10:12;;;;;;;7.80;5.67;;;;;;;17.94;63.26;100332.47;2188567;81;31360;-62
2021/05/20 05:13:20;;;;;;;13.35;5.97;;;;;;;18.83;61.70;100329.74;2174796;81;33712;-60
2021/05/20 05:16:24;;;;;;;8.08;5.30;;;;;;;19.68;60.00;100328.45;2168817;81;27675;-60
2021/05/20 05:19:26;;;;;;;8.53;5.72;;;;;;;20.39;58.96;100330.83;2130287;83;27725;-60
2021/05/20 05:22:27;;;;;;;8.25;5.97;;;;;;;21.05;56.89;100326.64;2127244;83;28806;-60
2021/05/20 05:25:29;;;;;;;6.70;5.60;;;;;;;21.53;56.20;100324.83;2127472;83;31388;-60
2021/05/20 05:28:31;;;;;;;5.42;4.87;;;;;;;21.99;55.25;100328.61;2128243;83;33296;-59
2021/05/20 05:31:34;;;;;;;8.85;6.22;;;;;;;22.34;53.78;100329.38;2173375;81;30060;-60
2021/05/20 05:34:36;;;;;;;7.45;5.70;;;;;;;22.51;52.60;100324.46;2134276;83;27554;-60
2021/05/20 05:37:38;;;;;;;6.58;5.12;;;;;;;22.72;51.71;100320.11;2173243;81;29049;-60
2021/05/20 05:40:40;;;;;;;9.30;6.08;;;;;;;22.93;51.50;100333.09;2129119;83;31047;-60
2021/05/20 05:43:42;;;;;;;7.15;5.40;;;;;;;23.17;50.20;100333.30;2127547;83;33307;-60
2021/05/20 05:46:44;;;;;;;6.62;5.55;;;;;;;23.23;49.68;100330.99;2119404;83;30441;-59
2021/05/20 05:49:49;;;;;;;9.40;5.33;;;;;;;23.24;49.27;100339.05;2169352;81;27601;-60
2021/05/20 05:52:49;;;;;;;5.75;5.20;;;;;;;23.36;48.43;100344.61;2173196;81;28373;-60
2021/05/20 05:55:52;;;;;;;6.00;5.37;;;;;;;23.52;47.94;100345.75;2173164;81;31634;-60
2021/05/20 05:58:54;;;;;;;9.18;5.28;;;;;;;23.79;47.69;100346.59;2172975;81;33837;-60
2021/05/20 06:01:58;;;;;;;6.47;5.87;;;;;;;24.18;47.31;100346.66;2173112;81;30566;-60
2021/05/20 06:05:00;;;;;;;9.08;5.33;;;;;;;24.55;46.54;100354.52;2170383;81;27556;-60
2021/05/20 06:08:02;;;;;;;7.40;5.10;;;;;;;25.01;46.16;100349.16;2166161;81;28419;-59
2021/05/20 06:11:04;;;;;;;7.05;5.85;;;;;;;25.43;44.95;100355.02;2166124;81;32113;-61
2021/05/20 06:14:08;;;;;;;7.25;4.90;;;;;;;25.75;44.61;100351.05;2165963;82;33359;-60
2021/05/20 06:17:09;;;;;;;8.03;5.12;;;;;;;26.16;43.94;100348.72;2168242;81;29329;-68
2021/05/20 06:20:11;;;;;;;9.03;5.33;;;;;;;26.50;42.69;100353.04;2173078;81;27608;-68
2021/05/20 06:23:13;;;;;;;5.20;4.70;;;;;;;26.54;41.48;100353.87;2173022;81;28594;-68
2021/05/20 06:26:15;;;;;;;8.60;5.95;;;;;;;26.62;40.78;100353.50;2169732;81;31106;-69
2021/05/20 06:29:17;;;;;;;6.15;5.55;;;;;;;26.57;40.89;100354.55;2166001;82;33603;-61
2021/05/20 06:32:19;;;;;;;5.12;4.62;;;;;;;26.84;40.67;100357.34;2166620;81;30073;-61
2021/05/20 06:35:21;;;;;;;7.33;5.50;;;;;;;27.05;39.58;100364.92;2171840;81;27696;-61
2021/05/20 06:38:23;;;;;;;6.53;5.08;;;;;;;27.13;39.37;100354.38;2171344;81;28947;-62
2021/05/20 06:41:25;;;;;;;6.33;5.10;;;;;;;27.27;38.95;100360.45;2178988;80;32126;-61
2021/05/20 06:44:27;;;;;;;5.10;4.60;;;;;;;27.42;38.66;100362.38;2172676;81;32278;-62
2021/05/20 06:47:28;;;;;;;6.75;5.33;;;;;;;27.66;38.02;100366.00;2167190;81;29072;-61
2021/05/20 06:50:30;;;;;;;7.83;5.15;;;;;;;27.77;37.46;100362.77;2166303;81;27574;-62
2021/05/20 06:53:35;;;;;;;7.92;5.50;;;;;;;27.84;36.91;100362.87;2165992;81;29880;-61
2021/05/20 06:56:37;;;;;;;7.53;5.37;;;;;;;27.85;36.85;100368.72;2168844;81;31890;-62
2021/05/20 07:00:01;;;;;;;6.35;4.97;;;;;;;27.88;36.64;100366.43;2172822;81;32929;-62
2021/05/20 07:03:03;;;;;;;5.80;4.40;;;;;;;28.01;36.41;100363.03;2172640;80;30120;-61
2021/05/20 07:06:05;;;;;;;5.90;4.17;;;;;;;28.08;35.83;100359.52;2173173;81;27588;-62
2021/05/20 07:09:07;;;;;;;6.87;4.78;;;;;;;28.13;35.73;100360.69;2173086;81;28607;-61
2021/05/20 07:12:10;;;;;;;5.58;4.35;;;;;;;28.11;35.42;100364.69;2169875;81;32020;-61
2021/05/20 07:15:15;;;;;;;5.12;4.00;;;;;;;28.13;35.21;100365.36;2146783;82;33673;-61
2021/05/20 07:18:17;;;;;;;4.90;4.10;;;;;;;28.07;34.74;100358.66;2166087;82;29483;-61
2021/05/20 07:21:19;;;;;;;6.25;4.08;;;;;;;28.20;35.04;100357.52;2166280;81;27622;-62
2021/05/20 07:24:21;;;;;;;5.78;4.00;;;;;;;28.38;34.48;100358.99;2166023;81;29219;-61
2021/05/20 07:27:23;;;;;;;5.75;3.95;;;;;;;28.33;34.58;100360.95;2166057;82;32094;-62
2021/05/20 07:30:25;;;;;;;6.05;4.10;;;;;;;28.47;34.28;100367.50;2166032;82;34294;-61
2021/05/20 07:33:28;;;;;;;3.90;3.60;;;;;;;28.35;33.69;100363.00;2166150;81;29708;-63
2021/05/20 07:36:30;;;;;;;7.05;3.55;;;;;;;28.54;34.12;100366.20;2166123;81;27602;-61
2021/05/20 07:39:31;;;;;;;4.12;3.65;;;;;;;28.73;33.81;100359.23;2166034;81;29134;-61
2021/05/20 07:42:33;;;;;;;3.62;3.33;;;;;;;28.94;33.45;100356.19;2168427;81;32130;-62
2021/05/20 07:45:35;;;;;;;4.17;3.35;;;;;;;28.89;32.70;100362.30;2172813;81;33545;-63
2021/05/20 07:48:38;;;;;;;3.62;3.33;;;;;;;28.76;32.83;100356.64;2167293;82;29349;-61
2021/05/20 07:51:40;;;;;;;3.37;2.70;;;;;;;28.73;32.76;100365.26;2167180;82;27621;-60
2021/05/20 07:54:42;;;;;;;4.10;2.95;;;;;;;28.60;32.03;100358.55;2188501;81;28598;-61
2021/05/20 07:57:44;;;;;;;4.05;2.75;;;;;;;28.62;32.38;100356.45;2188551;81;32092;-61
2021/05/20 08:00:46;;;;;;;2.40;2.20;;;;;;;28.68;32.38;100360.84;2175331;81;34038;-62
2021/05/20 08:03:55;;;;;;;5.10;2.60;;;;;;;28.77;31.62;100356.43;2173114;81;29802;-65
2021/05/20 08:07:02;;;;;;;3.95;3.00;;;;;;;28.63;31.14;100354.00;2133966;82;27628;-61
2021/05/20 08:13:03;;;;;;;3.95;2.98;;;;;;;28.51;31.11;100361.07;2166240;81;31568;-62
2021/05/20 08:16:05;;;;;;;5.80;2.60;;;;;;;28.54;31.52;100362.06;2166211;81;33031;-65
2021/05/20 08:19:08;;;;;;;4.30;2.58;;;;;;;28.54;30.59;100359.31;2169767;81;30080;-61
2021/05/20 08:22:10;;;;;;;2.83;2.58;;;;;;;28.50;31.20;100362.98;2134003;83;27624;-61
2021/05/20 08:25:12;;;;;;;3.62;2.70;;;;;;;28.73;31.01;100362.50;2173384;81;29177;-64
2021/05/20 08:28:14;;;;;;;2.47;2.27;;;;;;;28.73;29.82;100362.50;2134034;83;32145;-61
2021/05/20 08:31:16;;;;;;;2.58;2.37;;;;;;;28.48;30.08;100360.08;2173079;81;34076;-65
2021/05/20 08:34:18;;;;;;;3.20;2.47;;;;;;;28.52;30.13;100360.02;2149527;82;30589;-62
2021/05/20 08:37:20;;;;;;;2.77;2.08;;;;;;;28.58;30.10;100362.02;2138614;82;27682;-62
2021/05/20 08:40:22;;;;;;;2.98;2.20;;;;;;;28.45;30.42;100359.95;2138465;82;28618;-66
2021/05/20 08:43:24;;;;;;;2.80;2.02;;;;;;;28.61;29.17;100362.14;2112538;83;31016;-63
2021/05/20 08:46:26;;;;;;;2.00;1.90;;;;;;;28.55;29.47;100360.15;2169095;81;34017;-65
2021/05/20 08:49:28;;;;;;;2.25;2.05;;;;;;;28.55;28.98;100367.05;2163322;81;30458;-63
2021/05/20 08:52:32;;;;;;;3.17;2.62;;;;;;;28.59;29.37;100367.87;2163774;81;27674;-61
2021/05/20 08:55:36;;;;;;;2.02;1.75;;;;;;;28.56;29.24;100362.73;2184374;80;29353;-64
2021/05/20 08:58:38;;;;;;;4.12;2.62;;;;;;;28.55;28.91;100363.78;2173320;81;31685;-62
2021/05/20 09:01:45;;;;;;;3.47;2.33;;;;;;;28.42;29.04;100358.95;2131274;83;32721;-61
2021/05/20 09:05:09;;;;;;;3.10;2.62;;;;;;;28.29;29.25;100368.42;2173058;81;29401;-67
2021/05/20 09:08:16;;;;;;;;;;;;;;;27.87;28.87;100363.88;2175946;81;28086;-68
2021/05/20 09:11:24;;;;;;;4.45;2.92;;;;;;;27.07;29.54;100364.23;2173281;81;29715;-67
2021/05/20 09:14:32;;;;;;;11.97;3.30;;;;;;;26.21;30.13;100375.15;2127806;83;31381;-67
2021/05/20 09:17:34;;;;;;;4.05;3.37;;;;;;;25.48;31.11;100371.82;2127375;83;32932;-68
2021/05/20 09:20:40;;;;;;;6.58;3.40;;;;;;;24.94;32.80;100376.39;2127513;83;29721;-61
2021/05/20 09:23:49;;;;;;;4.83;3.30;;;;;;;24.62;32.69;100370.27;2131151;83;27514;-64
2021/05/20 09:26:50;;;;;;;7.35;2.98;;;;;;;24.37;32.94;100369.67;2173047;81;29134;-67
2021/05/20 09:30:09;;;;;;;4.47;3.33;;;;;;;24.15;33.10;100364.28;2134132;83;31420;-67
2021/05/20 09:33:16;;;;;;;5.10;3.30;;;;;;;24.04;33.07;100365.94;2167532;81;34116;-60
2021/05/20 09:36:25;;;;;;;4.22;3.00;;;;;;;23.77;33.13;100366.41;2134115;83;30590;-71
2021/05/20 09:39:27;;;;;;;5.00;2.90;;;;;;;23.56;33.12;100371.77;2173297;81;27579;-60
2021/05/20 09:42:30;;;;;;;3.10;2.80;;;;;;;23.30;33.51;100367.62;2132453;83;29002;-60
2021/05/20 09:45:34;;;;;;;3.20;2.90;;;;;;;23.08;33.96;100365.69;2127221;83;31034;-60
2021/05/20 09:48:40;;;;;;;3.37;2.65;;;;;;;22.92;33.62;100363.64;2138292;83;33636;-61
2021/05/20 09:51:42;;;;;;;3.27;2.52;;;;;;;22.72;33.96;100363.80;2171636;81;29324;-60
2021/05/20 09:54:44;;;;;;;7.22;3.35;;;;;;;22.75;34.12;100357.16;2177274;81;27540;-60
2021/05/20 09:57:46;;;;;;;3.92;2.85;;;;;;;22.81;34.15;100348.36;2182154;81;28952;-60
2021/05/20 10:00:49;;;;;;;5.35;2.87;;;;;;;22.71;33.87;100342.96;2181985;81;31831;-60
2021/05/20 10:03:54;;;;;;;4.50;2.85;;;;;;;22.66;34.23;100340.34;2178442;81;33312;-60
2021/05/20 10:06:56;;;;;;;;;;;;;;;22.71;34.60;100340.72;2176993;79;29367;-60
2021/05/20 10:09:59;;;;;;;4.45;2.37;;;;;;;22.74;34.65;100350.85;2143443;82;27516;-60
2021/05/20 10:13:09;;;;;;;4.45;3.17;;;;;;;22.59;34.22;100343.69;2143359;83;29249;-60
2021/05/20 10:16:11;;;;;;;6.37;3.47;;;;;;;22.47;34.62;100344.92;2143005;82;31014;-61
2021/05/20 10:19:12;;;;;;;6.30;4.25;;;;;;;22.36;35.08;100349.16;2150142;80;33288;-61
2021/05/20 10:22:15;;;;;;;9.63;4.67;;;;;;;22.27;35.74;100350.45;2193688;80;29708;-60
2021/05/20 10:25:18;;;;;;;7.87;4.47;;;;;;;22.30;35.84;100345.17;2148853;82;27551;-60
2021/05/20 10:28:22;;;;;;;4.83;3.40;;;;;;;22.33;36.83;100343.52;2182194;81;28620;-61
2021/05/20 10:31:25;;;;;;;7.53;3.30;;;;;;;22.49;37.08;100340.17;2145179;82;31028;-60
2021/05/20 10:34:27;;;;;;;4.70;3.40;;;;;;;22.53;37.02;100337.46;2171809;81;33348;-61
2021/05/20 10:37:40;;;;;;;3.50;3.20;;;;;;;22.61;36.80;100332.59;2171732;81;30425;-61
2021/05/20 10:40:42;;;;;;;3.62;3.20;;;;;;;22.64;36.08;100331.45;2171674;81;27674;-59
2021/05/20 10:43:51;;;;;;;3.20;2.90;;;;;;;22.64;36.53;100323.26;2171712;81;29097;-59
2021/05/20 10:47:04;;;;;;;5.33;2.90;;;;;;;22.68;36.31;100328.25;2147742;81;31121;-61
2021/05/20 10:50:07;;;;;;;3.80;2.90;;;;;;;22.66;36.51;100334.36;2171777;81;33282;-60
2021/05/20 10:53:09;;;;;;;2.33;1.70;;;;;;;22.69;36.44;100328.59;2177274;81;28768;-61
2021/05/20 10:56:25;;;;;;;2.92;2.30;;;;;;;22.88;36.13;100324.01;2148760;82;28129;-61
2021/05/20 10:59:37;;;;;;;3.15;2.00;;;;;;;23.08;36.03;100318.39;2151838;81;54820;-61
2021/05/20 11:02:53;;;;;;;3.77;2.50;;;;;;;23.22;35.45;100319.22;2144009;82;31808;-60
2021/05/20 11:05:55;;;;;;;4.00;2.17;;;;;;;23.28;35.38;100317.19;2171642;81;32955;-60
2021/05/20 11:08:58;;;;;;;2.60;2.30;;;;;;;23.35;35.38;100321.52;2171707;81;29667;-60
2021/05/20 11:12:01;;;;;;;2.52;2.33;;;;;;;23.30;35.06;100323.89;2171636;81;27648;-61
2021/05/20 11:15:18;;;;;;;2.87;2.37;;;;;;;23.19;34.68;100324.96;2171833;81;29319;-60
2021/05/20 11:18:34;;;;;;;5.75;2.42;;;;;;;23.14;35.23;100324.56;2177509;81;31686;-60
2021/05/20 11:22:11;;;;;;;3.02;2.50;;;;;;;23.28;35.83;100324.03;2148596;82;33597;-61
2021/05/20 11:25:15;;;;;;;3.80;2.50;;;;;;;23.33;35.58;100327.67;2182085;81;29140;-60
2021/05/20 11:28:18;;;;;;;2.33;2.13;;;;;;;22.88;35.63;100339.88;2101310;82;27617;-61
2021/05/20 11:31:21;;;;;;;6.70;2.15;;;;;;;22.37;36.58;100347.67;2182187;81;28612;-61
2021/05/20 11:34:47;;;;;;;2.40;2.20;;;;;;;21.92;37.32;100367.03;2148708;82;31266;-61
2021/05/20 11:40:37;;;;;;;2.62;2.12;;;;;;;21.08;40.13;100368.58;2148723;82;29345;-60
2021/05/20 11:43:39;;;;;;;3.98;2.47;;;;;;;20.82;40.49;100363.66;2148824;82;27578;-60
2021/05/20 11:47:04;;;;;;;4.03;2.50;;;;;;;20.70;40.85;100355.23;2148752;82;28055;-60
2021/05/20 11:50:13;;;;;;;2.83;2.55;;;;;;;20.68;41.51;100358.12;2117314;84;32346;-60
2021/05/20 11:53:15;;;;;;;5.53;2.50;;;;;;;20.55;40.83;100352.05;2157567;80;33126;-60
2021/05/20 11:56:40;;;;;;;2.75;2.45;;;;;;;20.48;41.64;100347.19;2148504;82;30431;-60
2021/05/20 11:59:53;;;;;;;4.87;2.33;;;;;;;20.47;41.39;100345.46;2181435;81;27639;-60
2021/05/20 12:02:56;;;;;;;3.83;1.95;;;;;;;20.44;41.19;100355.26;2146157;82;29889;-62
2021/05/20 12:05:58;;;;;;;2.58;1.77;;;;;;;20.36;40.90;100355.59;2201194;80;31300;-60
2021/05/20 12:09:12;;;;;;;1.92;1.80;;;;;;;20.23;40.84;100362.63;2158938;81;33833;-62
2021/05/20 12:12:17;;;;;;;2.30;1.50;;;;;;;20.24;40.79;100361.63;2152684;82;29305;-61
2021/05/20 12:15:21;;;;;;;1.55;1.45;;;;;;;20.19;40.61;100359.33;2152804;82;28181;-60
2021/05/20 12:18:22;;;;;;;5.27;2.27;;;;;;;20.12;40.63;100366.30;2182228;81;28591;-61
2021/05/20 12:21:25;;;;;;;9.23;1.72;;;;;;;20.13;41.12;100363.95;2148740;82;30768;-61
2021/05/20 12:24:32;;;;;;;2.72;1.72;;;;;;;20.26;40.51;100362.36;2181736;81;32399;-69
2021/05/20 12:27:45;;;;;;;1.85;1.60;;;;;;;20.36;40.65;100365.11;2112200;84;29338;-67
2021/05/20 12:30:47;;;;;;;1.77;1.47;;;;;;;20.37;40.26;100362.75;2177870;80;27644;-72
2021/05/20 12:33:49;;;;;;;7.47;1.50;;;;;;;20.31;40.22;100366.38;2148695;82;29500;-70
2021/05/20 12:36:51;;;;;;;2.05;0.68;;;;;;;20.23;40.13;100366.23;2178062;80;31058;-74
2021/05/20 12:39:52;;;;;;;1.20;0.60;;;;;;;20.08;38.67;100383.91;2148518;82;32933;-68
2021/05/20 12:43:14;;;;;;;0.65;0.65;;;;;;;19.78;38.48;100374.69;2181926;80;29304;-70
2021/05/20 12:46:17;;;;;;;4.08;0.70;;;;;;;19.48;38.95;100375.88;2148749;82;27555;-71
2021/05/20 12:49:22;;;;;;;0.75;0.40;;;;;;;19.21;39.61;100373.16;2179671;81;28610;-69
2021/05/20 12:52:24;;;;;;;2.67;0.72;;;;;;;18.97;39.45;100367.95;2150913;82;31015;-60
2021/05/20 12:55:38;;;;;;;1.17;0.98;;;;;;;18.79;39.81;100379.33;2170628;81;32798;-60
2021/05/20 12:59:08;;;;;;;1.07;0.60;;;;;;;18.73;40.28;100385.77;2152584;82;29648;-62
2021/05/20 13:02:18;;;;;;;2.65;0.53;;;;;;;18.60;41.04;100385.94;2192036;80;27685;-61
2021/05/20 13:05:21;;;;;;;0.90;0.60;;;;;;;18.46;41.70;100376.20;2137396;82;30343;-62
2021/05/20 13:08:29;;;;;;;2.15;1.25;;;;;;;18.43;42.17;100373.27;2172365;81;30955;-68
2021/05/20 13:11:34;;;;;;;0.60;0.60;;;;;;;18.49;42.71;100373.25;2184224;80;32976;-60
2021/05/20 13:14:39;;;;;;;0.67;0.67;;;;;;;18.56;42.77;100366.31;2217860;80;30122;-61
2021/05/20 13:23:59;;;;;;;2.40;1.05;;;;;;;19.19;42.44;100352.09;2189790;80;31298;-60
2021/05/20 13:27:01;;;;;;;2.02;0.82;;;;;;;19.33;42.41;100352.75;2180312;80;32765;-60
2021/05/20 13:30:15;;;;;;;1.02;0.88;;;;;;;19.47;42.58;100348.83;2178103;81;30407;-61
2021/05/20 13:33:24;;;;;;;2.25;1.15;;;;;;;19.56;42.76;100345.33;2179248;81;27620;-60
2021/05/20 13:36:20;;;;;;;0.75;0.75;;;;;;;19.58;43.07;100346.91;2178155;80;29999;-60
2021/05/20 13:39:23;;;;;;;2.75;1.10;;;;;;;19.56;42.71;100342.61;2149024;82;32220;-70
2021/05/20 13:42:25;;;;;;;2.05;1.00;;;;;;;19.51;42.34;100333.50;2178510;81;34041;-63
2021/05/20 13:45:29;;;;;;;1.20;1.10;;;;;;;19.41;42.04;100340.23;2149303;82;29742;-60
2021/05/20 13:48:31;;;;;;;2.45;1.10;;;;;;;19.39;42.49;100334.55;2178947;81;27652;-59
2021/05/20 13:51:36;;;;;;;1.30;0.90;;;;;;;19.38;42.19;100330.11;2148976;82;29503;-60
2021/05/20 13:54:37;;;;;;;;;;;;;;;19.34;41.48;100337.67;2181462;81;32091;-60
2021/05/20 13:57:39;;;;;;;7.53;1.37;;;;;;;19.28;41.18;100338.19;2139804;83;33250;-60
2021/05/20 14:00:41;;;;;;;1.80;1.20;;;;;;;19.24;41.30;100334.03;2149062;82;30447;-60
2021/05/20 14:03:50;;;;;;;2.50;1.20;;;;;;;19.25;41.70;100329.81;2175398;81;27585;-60
2021/05/20 14:06:47;;;;;;;2.77;1.70;;;;;;;19.30;42.01;100334.00;2148247;82;29163;-60
2021/05/20 14:09:50;;;;;;;1.82;1.40;;;;;;;19.37;42.25;100327.91;2148671;82;31890;-60
2021/05/20 14:12:52;;;;;;;2.72;1.62;;;;;;;19.51;42.18;100324.00;2148779;82;33057;-63
2021/05/20 14:15:54;;;;;;;4.08;1.70;;;;;;;19.63;42.09;100322.03;2148739;82;30453;-60
2021/05/20 14:18:56;;;;;;;2.40;1.47;;;;;;;19.79;42.18;100319.32;2150287;82;27643;-61
2021/05/20 14:21:59;;;;;;;1.77;1.52;;;;;;;19.97;42.28;100318.23;2179080;81;29736;-60
2021/05/20 14:25:01;;;;;;;1.65;1.35;;;;;;;20.13;42.08;100310.91;2148990;82;30978;-60
2021/05/20 14:28:03;;;;;;;1.52;1.42;;;;;;;20.13;41.48;100321.30;2178885;81;34082;-66